createdAt,value
2022-11-28T00:00:32.986Z,51.58
2022-11-28T00:03:35.965Z,42.95
2022-11-28T00:06:47.032Z,44.73
2022-11-28T00:09:50.361Z,46.05
2022-11-28T00:12:53.405Z,41.03
2022-11-28T00:16:00.246Z,42.45
2022-11-28T00:19:03.588Z,40.13
2022-11-28T00:22:06.154Z,43.20
2022-11-28T00:25:08.796Z,40.58
2022-11-28T00:28:11.269Z,39.42
2022-11-28T00:31:20.778Z,41.92
2022-11-28T00:34:24.367Z,38.22
2022-11-28T00:37:27.937Z,39.43
2022-11-28T00:40:30.569Z,43.00
2022-11-28T00:43:34.371Z,36.33
2022-11-28T00:46:37.027Z,38.53
2022-11-28T00:49:39.571Z,37.72
2022-11-28T00:52:42.097Z,38.03
2022-11-28T00:55:44.594Z,35.10
2022-11-28T00:58:49.723Z,39.28
2022-11-28T01:01:53.416Z,36.17
2022-11-28T01:04:56.989Z,35.55
2022-11-28T01:07:59.602Z,37.83
2022-11-28T01:11:02.571Z,33.38
2022-11-28T01:14:06.041Z,31.95
2022-11-28T01:17:09.465Z,29.50
2022-11-28T01:20:12.499Z,33.08
2022-11-28T01:23:18.549Z,33.17
2022-11-28T01:26:27.637Z,34.75
2022-11-28T01:29:30.109Z,33.40
2022-11-28T01:32:32.641Z,33.95
2022-11-28T01:35:35.981Z,36.05
2022-11-28T01:38:40.001Z,32.00
2022-11-28T01:41:42.866Z,36.38
2022-11-28T01:44:48.409Z,37.10
2022-11-28T01:47:53.872Z,39.63
2022-11-28T01:51:01.023Z,34.58
2022-11-28T01:54:04.621Z,32.70
2022-11-28T01:57:12.774Z,35.80
2022-11-28T02:00:20.971Z,36.03
2022-11-28T02:03:30.260Z,37.42
2022-11-28T02:06:33.819Z,35.42
2022-11-28T02:09:37.120Z,29.93
2022-11-28T02:12:48.302Z,33.03
2022-11-28T02:16:05.561Z,35.55
2022-11-28T02:19:17.725Z,33.03
2022-11-28T02:22:59.334Z,35.45
2022-11-28T02:26:40.042Z,34.43
2022-11-28T02:29:59.342Z,32.13
2022-11-28T02:33:14.248Z,33.20
2022-11-28T02:36:59.644Z,33.35
2022-11-28T02:40:42.867Z,33.08
2022-11-28T02:43:59.288Z,29.47
2022-11-28T02:47:18.944Z,26.90
2022-11-28T02:50:28.643Z,29.33
2022-11-28T02:53:34.166Z,29.38
2022-11-28T02:56:36.954Z,30.25
2022-11-28T02:59:43.045Z,29.37
2022-11-28T03:03:00.452Z,28.13
2022-11-28T03:06:21.710Z,26.60
2022-11-28T03:09:45.405Z,26.70
2022-11-28T03:12:57.310Z,27.75
2022-11-28T03:16:19.379Z,28.77
2022-11-28T03:19:30.931Z,26.63
2022-11-28T03:22:40.686Z,22.48
2022-11-28T03:26:04.076Z,27.05
2022-11-28T03:29:16.457Z,27.55
2022-11-28T03:32:26.795Z,27.50
2022-11-28T03:35:34.571Z,27.65
2022-11-28T03:38:42.785Z,25.40
2022-11-28T03:41:55.221Z,27.98
2022-11-28T03:45:24.115Z,26.10
2022-11-28T03:48:31.959Z,24.97
2022-11-28T03:51:46.794Z,29.33
2022-11-28T03:54:55.589Z,26.98
2022-11-28T03:58:07.368Z,28.33
2022-11-28T04:01:32.137Z,29.25
2022-11-28T04:04:38.264Z,26.47
2022-11-28T04:07:50.486Z,26.70
2022-11-28T04:10:58.654Z,26.50
2022-11-28T04:14:25.283Z,29.90
2022-11-28T04:17:39.945Z,27.83
2022-11-28T04:21:04.929Z,29.27
2022-11-28T04:24:14.939Z,26.92
2022-11-28T04:27:23.465Z,26.70
2022-11-28T04:30:27.779Z,28.75
2022-11-28T04:33:36.527Z,24.52
2022-11-28T04:36:43.465Z,26.97
2022-11-28T04:39:49.168Z,27.08
2022-11-28T04:43:01.292Z,28.90
2022-11-28T04:46:25.231Z,25.45
2022-11-28T04:49:29.578Z,25.33
2022-11-28T04:52:53.138Z,29.03
2022-11-28T04:56:02.506Z,32.22
2022-11-28T04:59:07.637Z,32.03
2022-11-28T05:02:13.523Z,33.67
2022-11-28T05:05:23.504Z,31.60
2022-11-28T05:08:26.716Z,31.00
2022-11-28T05:11:29.456Z,32.60
2022-11-28T05:14:32.915Z,35.35
2022-11-28T05:17:41.716Z,31.58
2022-11-28T05:20:44.866Z,33.22
2022-11-28T05:23:47.340Z,32.07
2022-11-28T05:26:50.125Z,35.78
2022-11-28T05:29:53.915Z,36.83
2022-11-28T05:32:58.768Z,38.90
2022-11-28T05:36:13.139Z,40.88
2022-11-28T05:39:16.280Z,41.43
2022-11-28T05:42:20.119Z,45.60
2022-11-28T05:45:22.820Z,44.28
2022-11-28T05:48:25.602Z,44.47
2022-11-28T05:51:28.955Z,46.97
2022-11-28T05:54:32.189Z,48.33
2022-11-28T05:57:37.842Z,45.53
2022-11-28T06:00:40.552Z,46.65
2022-11-28T06:03:43.874Z,45.42
2022-11-28T06:06:46.490Z,44.80
2022-11-28T06:09:50.018Z,44.20
2022-11-28T06:12:53.251Z,48.85
2022-11-28T06:15:56.268Z,49.90
2022-11-28T06:19:04.286Z,48.35
2022-11-28T06:22:07.345Z,45.17
2022-11-28T06:25:10.378Z,50.57
2022-11-28T06:28:12.824Z,47.08
2022-11-28T06:31:23.121Z,52.90
2022-11-28T06:34:27.164Z,51.15
2022-11-28T06:37:30.661Z,47.92
2022-11-28T06:40:34.642Z,44.63
2022-11-28T06:43:38.488Z,46.22
2022-11-28T06:46:43.945Z,44.28
2022-11-28T06:49:49.482Z,44.28
2022-11-28T06:52:55.040Z,47.28
2022-11-28T06:56:01.669Z,44.73
2022-11-28T06:59:04.577Z,115.07
2022-11-28T07:02:09.493Z,41.85
2022-11-28T07:05:15.243Z,50.47
2022-11-28T07:08:21.696Z,49.55
2022-11-28T07:11:28.149Z,45.27
2022-11-28T07:14:33.668Z,47.67
2022-11-28T07:17:40.033Z,50.53
2022-11-28T07:20:45.969Z,47.50
2022-11-28T07:23:49.560Z,49.17
2022-11-28T07:26:52.167Z,46.33
2022-11-28T07:29:54.899Z,47.95
2022-11-28T07:32:58.659Z,49.03
2022-11-28T07:36:07.473Z,46.00
2022-11-28T07:39:13.771Z,42.75
2022-11-28T07:42:17.063Z,45.10
2022-11-28T07:45:53.476Z,44.92
2022-11-28T07:48:54.270Z,59.30
2022-11-28T07:51:58.782Z,52.25
2022-11-28T07:55:01.973Z,44.97
2022-11-28T07:58:05.816Z,37.60
2022-11-28T08:01:14.231Z,40.35
2022-11-28T08:04:17.501Z,39.08
2022-11-28T08:07:20.543Z,36.35
2022-11-28T08:10:23.313Z,36.70
2022-11-28T08:13:28.102Z,36.23
2022-11-28T08:16:32.722Z,34.78
2022-11-28T08:19:35.829Z,37.72
2022-11-28T08:22:38.800Z,37.75
2022-11-28T08:25:41.683Z,34.55
2022-11-28T08:28:45.420Z,34.43
2022-11-28T08:31:49.027Z,33.15
2022-11-28T08:34:52.088Z,32.40
2022-11-28T08:38:00.390Z,31.10
2022-11-28T08:41:10.813Z,25.27
2022-11-28T08:44:18.310Z,26.97
2022-11-28T08:47:21.473Z,55.45
2022-11-28T08:50:27.430Z,26.08
2022-11-28T08:53:30.600Z,23.67
2022-11-28T08:56:36.619Z,20.15
2022-11-28T08:59:39.648Z,22.03
2022-11-28T09:02:42.665Z,23.33
2022-11-28T09:05:47.477Z,21.45
2022-11-28T09:08:53.634Z,24.30
2022-11-28T09:11:59.768Z,24.52
2022-11-28T09:15:06.130Z,26.07
2022-11-28T09:18:09.438Z,31.60
2022-11-28T09:21:15.023Z,30.25
2022-11-28T09:24:18.905Z,31.38
2022-11-28T09:27:21.494Z,31.25
2022-11-28T09:30:26.791Z,29.57
2022-11-28T09:33:30.651Z,29.85
2022-11-28T09:36:33.802Z,30.80
2022-11-28T09:39:50.605Z,40.15
2022-11-28T09:43:11.217Z,54.70
2022-11-28T09:46:24.902Z,43.83
2022-11-28T09:49:40.588Z,28.02
2022-11-28T09:52:53.706Z,29.20
2022-11-28T09:56:00.512Z,29.85
2022-11-28T09:59:23.525Z,26.73
2022-11-28T10:02:35.155Z,28.47
2022-11-28T10:05:52.293Z,30.38
2022-11-28T10:09:47.978Z,30.15
2022-11-28T10:13:14.616Z,28.10
2022-11-28T10:21:20.242Z,30.43
2022-11-28T10:24:37.998Z,31.23
2022-11-28T10:28:05.621Z,31.50
2022-11-28T10:31:35.667Z,31.10
2022-11-28T10:45:56.903Z,33.95
2022-11-28T10:49:49.323Z,29.63
2022-11-28T10:53:23.732Z,30.92
2022-11-28T10:57:38.719Z,32.97
2022-11-28T11:00:49.458Z,32.23
2022-11-28T11:03:56.795Z,31.30
2022-11-28T11:07:54.799Z,33.75
2022-11-28T11:11:45.769Z,43.05
2022-11-28T11:15:33.943Z,37.15
2022-11-28T11:19:00.692Z,30.87
2022-11-28T11:22:14.412Z,34.38
2022-11-28T11:25:46.732Z,32.25
2022-11-28T11:28:51.260Z,30.23
2022-11-28T11:32:04.124Z,31.42
2022-11-28T11:35:43.584Z,34.73
2022-11-28T11:43:38.022Z,29.80
2022-11-28T11:47:11.317Z,27.65
2022-11-28T11:50:35.693Z,32.20
2022-11-28T11:53:46.373Z,29.53
2022-11-28T11:57:32.398Z,30.63
2022-11-28T12:00:47.907Z,33.50
2022-11-28T12:04:37.209Z,57.92
2022-11-28T12:07:40.028Z,87.47
2022-11-28T12:11:22.241Z,87.63
2022-11-28T12:14:55.855Z,28.92
2022-11-28T12:18:35.394Z,32.55
2022-11-28T12:22:06.273Z,34.08
2022-11-28T12:25:23.311Z,33.75
2022-11-28T12:29:15.396Z,34.00
2022-11-28T12:32:28.658Z,30.92
2022-11-28T12:35:39.768Z,32.33
2022-11-28T12:39:14.854Z,31.10
2022-11-28T12:42:34.544Z,34.42
2022-11-28T12:46:03.166Z,32.67
2022-11-28T12:50:01.016Z,32.78
2022-11-28T12:53:35.026Z,38.63
2022-11-28T12:57:03.199Z,32.80
2022-11-28T13:00:30.044Z,70.18
2022-11-28T13:04:28.882Z,78.67
2022-11-28T13:08:12.744Z,35.05
2022-11-28T13:11:55.555Z,37.03
2022-11-28T13:15:18.158Z,34.45
2022-11-28T13:18:48.209Z,32.90
2022-11-28T13:22:03.333Z,34.03
2022-11-28T13:25:32.904Z,30.58
2022-11-28T13:29:14.882Z,31.25
2022-11-28T13:32:47.599Z,30.13
2022-11-28T13:40:24.261Z,30.37
2022-11-28T13:43:30.673Z,32.15
2022-11-28T13:46:35.159Z,33.40
2022-11-28T13:49:46.193Z,33.83
2022-11-28T13:57:45.928Z,35.87
2022-11-28T14:01:12.960Z,41.60
2022-11-28T14:05:27.148Z,39.58
2022-11-28T14:08:57.009Z,35.33
2022-11-28T14:12:08.115Z,37.53
2022-11-28T14:15:36.322Z,72.37
2022-11-28T14:19:15.696Z,35.08
2022-11-28T14:22:45.590Z,36.60
2022-11-28T14:25:52.578Z,40.05
2022-11-28T14:29:04.421Z,41.53
2022-11-28T14:32:39.951Z,50.43
2022-11-28T14:35:53.381Z,43.80
2022-11-28T14:39:20.239Z,41.72
2022-11-28T14:42:58.083Z,41.45
2022-11-28T14:45:50.611Z,40.05
2022-11-28T14:49:00.803Z,38.60
2022-11-28T14:52:39.563Z,38.65
2022-11-28T14:55:47.759Z,36.90
2022-11-28T14:59:28.850Z,43.30
2022-11-28T15:03:04.886Z,40.05
2022-11-28T15:06:23.172Z,39.87
2022-11-28T15:09:49.776Z,41.78
2022-11-28T15:13:19.260Z,41.30
2022-11-28T15:16:32.499Z,44.08
2022-11-28T15:19:46.110Z,47.80
2022-11-28T15:22:59.724Z,36.90
2022-11-28T15:26:42.954Z,43.67
2022-11-28T15:29:58.763Z,43.10
2022-11-28T15:33:06.085Z,44.95
2022-11-28T15:36:29.959Z,43.97
2022-11-28T15:39:44.824Z,40.47
2022-11-28T15:42:50.652Z,46.30
2022-11-28T15:46:01.645Z,44.08
2022-11-28T15:49:06.743Z,49.90
2022-11-28T15:52:20.307Z,47.47
2022-11-28T15:55:26.905Z,48.97
2022-11-28T15:58:38.298Z,47.78
2022-11-28T16:02:02.619Z,48.75
2022-11-28T16:05:30.513Z,50.80
2022-11-28T16:08:40.504Z,47.88
2022-11-28T16:12:02.634Z,48.97
2022-11-28T16:15:35.564Z,50.03
2022-11-28T16:19:03.554Z,50.17
2022-11-28T16:22:23.919Z,47.83
2022-11-28T16:25:45.340Z,42.45
2022-11-28T16:29:17.812Z,50.20
2022-11-28T16:32:38.612Z,48.25
2022-11-28T16:35:52.582Z,51.20
2022-11-28T16:39:13.662Z,47.50
2022-11-28T16:42:18.847Z,66.30
2022-11-28T16:45:32.787Z,52.17
2022-11-28T16:48:38.626Z,50.95
2022-11-28T16:52:09.220Z,45.97
2022-11-28T16:55:47.357Z,44.20
2022-11-28T16:59:27.543Z,44.28
2022-11-28T17:02:43.533Z,47.67
2022-11-28T17:06:06.267Z,45.13
2022-11-28T17:09:22.795Z,54.80
2022-11-28T17:12:46.367Z,47.35
2022-11-28T17:16:06.425Z,46.03
2022-11-28T17:19:16.332Z,47.50
2022-11-28T17:22:51.337Z,55.25
2022-11-28T17:26:07.357Z,48.63
2022-11-28T17:29:29.406Z,47.17
2022-11-28T17:32:37.000Z,49.45
2022-11-28T17:35:57.445Z,51.23
2022-11-28T17:39:17.385Z,47.88
2022-11-28T17:42:20.483Z,54.30
2022-11-28T17:45:31.264Z,52.67
2022-11-28T17:48:52.928Z,58.50
2022-11-28T17:52:16.144Z,70.23
2022-11-28T17:55:36.058Z,69.25
2022-11-28T17:58:56.157Z,64.72
2022-11-28T18:02:04.473Z,49.58
2022-11-28T18:05:20.111Z,48.58
2022-11-28T18:08:43.106Z,52.53
2022-11-28T18:11:47.037Z,49.38
2022-11-28T18:15:03.521Z,48.28
2022-11-28T18:18:19.422Z,55.58
2022-11-28T18:21:42.127Z,53.22
2022-11-28T18:25:00.427Z,53.67
2022-11-28T18:28:30.006Z,56.35
2022-11-28T18:31:53.635Z,53.03
2022-11-28T18:35:16.035Z,51.70
2022-11-28T18:38:39.993Z,55.38
2022-11-28T18:42:05.547Z,49.67
2022-11-28T18:45:22.483Z,50.80
2022-11-28T18:48:40.085Z,54.05
2022-11-28T18:52:02.445Z,54.17
2022-11-28T18:55:26.045Z,51.53
2022-11-28T18:58:49.483Z,50.53
2022-11-28T19:02:24.923Z,57.67
2022-11-28T19:05:39.455Z,53.05
2022-11-28T19:08:53.646Z,51.88
2022-11-28T19:11:56.642Z,52.65
2022-11-28T19:15:02.581Z,52.10
2022-11-28T19:18:09.521Z,54.25
2022-11-28T19:21:35.435Z,47.65
2022-11-28T19:24:52.132Z,55.50
2022-11-28T19:28:07.998Z,50.38
2022-11-28T19:31:34.150Z,49.07
2022-11-28T19:34:55.880Z,47.97
2022-11-28T19:38:15.881Z,48.65
2022-11-28T19:41:35.822Z,47.53
2022-11-28T19:44:55.998Z,54.95
2022-11-28T19:48:12.057Z,54.80
2022-11-28T19:51:20.818Z,52.65
2022-11-28T19:54:30.115Z,56.38
2022-11-28T19:57:51.691Z,53.42
2022-11-28T20:01:15.813Z,53.03
2022-11-28T20:04:27.933Z,54.40
2022-11-28T20:07:44.242Z,52.35
2022-11-28T20:11:20.593Z,50.20
2022-11-28T20:14:43.910Z,52.80
2022-11-28T20:18:08.578Z,57.60
2022-11-28T20:21:28.585Z,55.33
2022-11-28T20:24:51.747Z,48.38
2022-11-28T20:28:08.954Z,51.60
2022-11-28T20:31:40.709Z,52.17
2022-11-28T20:35:05.738Z,55.08
2022-11-28T20:38:20.912Z,52.87
2022-11-28T20:41:26.094Z,54.20
2022-11-28T20:44:30.004Z,49.72
2022-11-28T20:47:41.081Z,55.95
2022-11-28T20:50:52.075Z,49.92
2022-11-28T20:54:15.834Z,50.60
2022-11-28T20:57:51.587Z,50.63
2022-11-28T21:01:12.739Z,57.00
2022-11-28T21:04:33.186Z,50.25
2022-11-28T21:07:42.231Z,50.08
2022-11-28T21:10:58.599Z,48.33
2022-11-28T21:14:03.369Z,44.58
2022-11-28T21:17:08.013Z,51.65
2022-11-28T21:20:30.608Z,45.80
2022-11-28T21:23:45.736Z,48.92
2022-11-28T21:27:08.622Z,45.37
2022-11-28T21:30:15.946Z,48.97
2022-11-28T21:33:19.529Z,47.78
2022-11-28T21:36:34.318Z,51.90
2022-11-28T21:39:44.430Z,48.28
2022-11-28T21:43:07.547Z,48.97
2022-11-28T21:46:41.263Z,46.65
2022-11-28T21:50:02.217Z,48.88
2022-11-28T21:53:18.651Z,46.58
2022-11-28T21:56:28.013Z,44.85
2022-11-28T21:59:43.741Z,48.10
2022-11-28T22:03:14.469Z,47.60
2022-11-28T22:06:39.537Z,43.35
2022-11-28T22:10:14.468Z,44.90
2022-11-28T22:13:35.630Z,44.33
2022-11-28T22:16:50.256Z,44.63
2022-11-28T22:20:13.660Z,45.47
2022-11-28T22:23:47.307Z,44.08
2022-11-28T22:27:09.330Z,44.03
2022-11-28T22:30:12.608Z,46.30
2022-11-28T22:33:16.292Z,45.30
2022-11-28T22:36:27.924Z,45.22
2022-11-28T22:39:31.111Z,44.38
2022-11-28T22:42:41.041Z,42.10
2022-11-28T22:45:44.846Z,49.00
2022-11-28T22:48:48.561Z,44.03
2022-11-28T22:51:52.283Z,51.15
2022-11-28T22:55:15.559Z,48.47
2022-11-28T22:58:40.968Z,46.92
2022-11-28T23:01:54.038Z,45.67
2022-11-28T23:05:15.790Z,45.23
2022-11-28T23:08:29.112Z,48.97
2022-11-28T23:11:55.237Z,51.45
2022-11-28T23:15:14.039Z,46.35
2022-11-28T23:18:37.931Z,42.30
2022-11-28T23:21:44.601Z,41.43
2022-11-28T23:24:54.497Z,40.45
2022-11-28T23:28:07.576Z,44.03
2022-11-28T23:31:30.591Z,41.70
2022-11-28T23:34:47.892Z,41.35
2022-11-28T23:38:08.375Z,41.30
2022-11-28T23:41:19.299Z,40.95
2022-11-28T23:44:23.356Z,36.58
2022-11-28T23:47:26.416Z,40.42
2022-11-28T23:50:49.232Z,39.55
2022-11-28T23:54:16.469Z,36.77
2022-11-28T23:57:38.704Z,40.05
